Time;durP1;ratioP1;P1;durP2;ratioP2;P2;SDS_P1;SDS_P2;PMS_P1;PMS_P2;Temp;Humidity;BMP_temperature;BMP_pressure;BME280_temperature;BME280_humidity;BME280_pressure;Samples;Min_cycle;Max_cycle;Signal;HPM_P1;HPM_P2
2022/11/10 00:01:08;;;;;;;;;;;;;;;22.00;54.48;101330.31;7256442;19;152251;-54
2022/11/10 00:03:49;;;;;;;;;;;;;;;21.99;54.34;101320.19;7254859;19;151876;-55
2022/11/10 00:06:29;;;;;;;;;;;;;;;22.00;54.28;101329.47;7253655;19;152043;-54
2022/11/10 00:09:11;;;;;;;;;;;;;;;21.99;54.67;101331.44;7264926;19;152104;-55
2022/11/10 00:11:52;;;;;;;;;;;;;;;22.00;54.15;101337.91;7256977;19;152312;-54
2022/11/10 00:17:23;;;;;;;;;;;;;;;21.98;54.74;101337.41;7259912;19;152135;-55
2022/11/10 00:20:04;;;;;;;;;;;;;;;21.98;54.63;101334.59;7264919;19;152354;-55
2022/11/10 00:22:45;;;;;;;;;;;;;;;21.97;54.42;101335.72;7262488;19;151834;-55
2022/11/10 00:25:26;;;;;;;;;;;;;;;21.97;54.91;101341.34;7267281;19;154276;-55
2022/11/10 00:28:07;;;;;;;;;;;;;;;21.95;55.01;101336.03;7260984;19;152934;-55
2022/11/10 00:30:47;;;;;;;;;;;;;;;21.94;54.77;101337.16;7261640;19;152792;-55
2022/11/10 00:33:28;;;;;;;;;;;;;;;21.95;55.12;101338.00;7270837;19;152055;-55
2022/11/10 00:36:09;;;;;;;;;;;;;;;21.93;55.51;101335.50;7261483;19;154190;-54
2022/11/10 00:38:51;;;;;;;;;;;;;;;21.91;54.90;101334.09;7261910;19;152959;-54
2022/11/10 00:41:32;;;;;;;;;;;;;;;21.91;55.33;101336.91;7259995;19;153220;-55
2022/11/10 00:44:13;;;;;;;;;;;;;;;21.90;54.74;101340.88;7258119;19;153039;-55
2022/11/10 00:46:54;;;;;;;;;;;;;;;21.89;54.87;101344.84;7262810;19;152347;-54
2022/11/10 00:49:36;;;;;;;;;;;;;;;21.87;55.11;101347.13;7258412;19;153673;-55
2022/11/10 00:52:17;;;;;;;;;;;;;;;21.85;54.70;101355.84;7261510;19;152531;-54
2022/11/10 00:54:58;;;;;;;;;;;;;;;21.83;54.77;101363.78;7268131;19;154641;-55
2022/11/10 00:57:39;;;;;;;;;;;;;;;21.86;54.97;101367.94;7260853;19;153937;-54
2022/11/10 01:00:21;;;;;;;;;;;;;;;21.84;55.01;101371.09;7255320;19;154451;-55
2022/11/10 01:03:02;;;;;;;;;;;;;;;21.84;54.64;101384.31;7258510;19;152482;-54
2022/11/10 01:05:44;;;;;;;;;;;;;;;21.82;54.89;101378.16;7261222;19;152387;-54
2022/11/10 01:08:26;;;;;;;;;;;;;;;21.81;55.03;101376.47;7256425;19;154060;-54
2022/11/10 01:11:07;;;;;;;;;;;;;;;21.78;55.40;101371.47;7261474;19;152536;-54
2022/11/10 01:13:49;;;;;;;;;;;;;;;21.78;55.18;101380.75;7262185;19;152856;-54
2022/11/10 01:16:31;;;;;;;;;;;;;;;21.76;55.43;101379.38;7255298;19;153641;-54
2022/11/10 01:19:12;;;;;;;;;;;;;;;21.73;55.72;101375.19;7262766;19;152311;-54
2022/11/10 01:21:53;;;;;;;;;;;;;;;21.74;55.78;101379.69;7259641;19;152604;-55
2022/11/10 01:24:34;;;;;;;;;;;;;;;21.74;55.58;101388.13;7263304;19;154871;-54
2022/11/10 01:27:15;;;;;;;;;;;;;;;21.73;55.51;101384.47;7261360;19;152482;-55
2022/11/10 01:29:56;;;;;;;;;;;;;;;21.72;55.80;101379.97;7261632;19;152456;-55
2022/11/10 01:32:37;;;;;;;;;;;;;;;21.72;55.58;101379.16;7260137;19;152618;-56
2022/11/10 01:35:17;;;;;;;;;;;;;;;21.72;55.53;101374.34;7262667;19;152126;-56
2022/11/10 01:37:58;;;;;;;;;;;;;;;21.74;55.42;101379.69;7264040;19;152265;-56
2022/11/10 01:40:39;;;;;;;;;;;;;;;21.76;55.13;101379.38;7260407;19;152302;-56
2022/11/10 01:43:19;;;;;;;;;;;;;;;21.77;54.74;101386.66;7271601;19;152537;-55
2022/11/10 01:46:01;;;;;;;;;;;;;;;21.77;54.30;101395.09;7259934;19;152425;-56
2022/11/10 01:48:45;;;;;;;;;;;;;;;21.76;54.41;101397.06;7259631;19;153468;-56
2022/11/10 01:51:26;;;;;;;;;;;;;;;21.77;54.15;101389.47;7260758;19;151979;-56
2022/11/10 01:54:09;;;;;;;;;;;;;;;21.76;54.59;101399.09;7261250;19;153398;-55
2022/11/10 01:56:52;;;;;;;;;;;;;;;21.74;54.29;101403.03;7262225;19;152359;-53
2022/11/10 01:59:38;;;;;;;;;;;;;;;21.72;54.02;101408.09;7261807;19;152183;-55
2022/11/10 02:02:20;;;;;;;;;;;;;;;21.71;54.33;101409.25;7260726;19;152342;-54
2022/11/10 02:05:02;;;;;;;;;;;;;;;21.70;54.13;101407.59;7259826;19;153099;-55
2022/11/10 02:07:44;;;;;;;;;;;;;;;21.68;54.21;101409.03;7263018;19;152176;-54
2022/11/10 02:10:31;;;;;;;;;;;;;;;21.67;54.21;101418.59;7257707;19;153848;-55
2022/11/10 02:13:13;;;;;;;;;;;;;;;21.64;53.98;101419.22;7257948;19;152065;-54
2022/11/10 02:15:53;;;;;;;;;;;;;;;21.62;54.16;101419.50;7257695;19;152471;-55
2022/11/10 02:18:36;;;;;;;;;;;;;;;21.59;54.15;101414.50;7253983;19;153449;-55
2022/11/10 02:21:23;;;;;;;;;;;;;;;21.59;54.52;101411.69;7256189;19;154014;-55
2022/11/10 02:24:04;;;;;;;;;;;;;;;21.56;54.33;101408.66;7258314;19;153389;-55
2022/11/10 02:26:48;;;;;;;;;;;;;;;21.55;54.39;101405.00;7256777;19;153242;-55
2022/11/10 02:29:33;;;;;;;;;;;;;;;21.53;54.34;101404.47;7252951;19;153255;-53
2022/11/10 02:32:15;;;;;;;;;;;;;;;21.53;54.28;101410.09;7264969;19;152960;-54
2022/11/10 02:34:57;;;;;;;;;;;;;;;21.51;54.64;101414.34;7258396;19;153356;-54
2022/11/10 02:37:38;;;;;;;;;;;;;;;21.49;54.82;101414.66;7252558;19;152966;-54
2022/11/10 02:40:22;;;;;;;;;;;;;;;21.46;54.46;101409.66;7256038;19;152508;-55
2022/11/10 02:43:04;;;;;;;;;;;;;;;21.45;54.88;101413.59;7255858;19;152616;-54
2022/11/10 02:45:46;;;;;;;;;;;;;;;21.42;54.42;101408.59;7256781;19;152614;-54
2022/11/10 02:48:26;;;;;;;;;;;;;;;21.42;54.67;101411.41;7257468;19;151871;-54
2022/11/10 02:51:07;;;;;;;;;;;;;;;21.41;54.81;101403.25;7257361;19;152057;-54
2022/11/10 02:53:53;;;;;;;;;;;;;;;21.41;54.59;101417.31;7258432;19;152481;-55
2022/11/10 02:56:34;;;;;;;;;;;;;;;21.37;54.64;101419.91;7267033;19;152611;-54
2022/11/10 02:59:16;;;;;;;;;;;;;;;21.36;54.95;101421.03;7258122;19;154271;-55
2022/11/10 03:01:57;;;;;;;;;;;;;;;21.33;55.08;101424.47;7262032;19;152944;-54
2022/11/10 03:04:39;;;;;;;;;;;;;;;21.33;55.26;101432.03;7261852;19;151765;-54
2022/11/10 03:07:20;;;;;;;;;;;;;;;21.33;55.12;101437.66;7257811;19;152577;-55
2022/11/10 03:10:01;;;;;;;;;;;;;;;21.30;54.97;101439.13;7257893;19;153581;-56
2022/11/10 03:12:42;;;;;;;;;;;;;;;21.29;55.00;101431.81;7259694;19;151888;-55
2022/11/10 03:15:23;;;;;;;;;;;;;;;21.27;54.75;101443.34;7257265;19;152023;-55
2022/11/10 03:18:05;;;;;;;;;;;;;;;21.24;55.13;101441.16;7264818;19;154604;-55
2022/11/10 03:20:48;;;;;;;;;;;;;;;21.24;55.32;101443.97;7254045;19;152397;-55
2022/11/10 03:23:34;;;;;;;;;;;;;;;21.22;54.90;101440.59;7260217;19;153065;-56
2022/11/10 03:26:15;;;;;;;;;;;;;;;21.21;55.33;101435.31;7256940;19;153390;-56
2022/11/10 03:28:57;;;;;;;;;;;;;;;21.20;55.04;101436.44;7255554;19;153283;-56
2022/11/10 03:31:39;;;;;;;;;;;;;;;21.19;55.15;101446.00;7256846;19;153612;-56
2022/11/10 03:34:20;;;;;;;;;;;;;;;21.17;55.17;101446.28;7257046;19;152871;-55
2022/11/10 03:37:01;;;;;;;;;;;;;;;21.16;55.54;101452.22;7256819;19;153147;-56
2022/11/10 03:39:41;;;;;;;;;;;;;;;21.13;55.40;101467.69;7256060;19;152049;-55
2022/11/10 03:42:22;;;;;;;;;;;;;;;21.11;55.34;101458.72;7263932;19;151953;-55
2022/11/10 03:45:03;;;;;;;;;;;;;;;21.07;55.94;101459.63;7258066;19;152422;-55
2022/11/10 03:47:45;;;;;;;;;;;;;;;21.05;55.58;101464.69;7256335;19;151971;-55
2022/11/10 03:50:26;;;;;;;;;;;;;;;21.07;55.42;101452.03;7254579;19;153902;-55
2022/11/10 03:53:07;;;;;;;;;;;;;;;21.07;55.18;101462.44;7261215;19;152873;-56
2022/11/10 03:55:48;;;;;;;;;;;;;;;21.02;55.87;101460.53;7263434;19;153088;-55
2022/11/10 03:58:29;;;;;;;;;;;;;;;21.02;55.43;101468.09;7263658;19;153048;-55
2022/11/10 04:01:09;;;;;;;;;;;;;;;21.00;55.50;101461.94;7263568;19;152267;-55
2022/11/10 04:03:51;;;;;;;;;;;;;;;21.00;55.18;101461.94;7268213;19;152537;-55
2022/11/10 04:09:26;;;;;;;;;;;;;;;20.95;55.65;101471.25;7256842;19;154054;-55
2022/11/10 04:17:48;;;;;;;;;;;;;;;20.92;55.47;101487.88;7265736;19;152602;-56
2022/11/10 04:20:29;;;;;;;;;;;;;;;20.91;55.86;101498.28;7259394;19;152512;-55
2022/11/10 04:28:56;;;;;;;;;;;;;;;20.88;55.68;101503.66;7263061;19;152218;-55
2022/11/10 04:31:38;;;;;;;;;;;;;;;20.84;55.90;101498.66;7270620;19;153177;-55
2022/11/10 04:34:18;;;;;;;;;;;;;;;20.85;55.91;101502.25;7260982;19;152416;-54
2022/11/10 04:36:59;;;;;;;;;;;;;;;20.82;55.85;101512.13;7261328;19;152328;-54
2022/11/10 04:39:40;;;;;;;;;;;;;;;20.81;56.13;101521.69;7264978;19;153267;-54
2022/11/10 04:42:21;;;;;;;;;;;;;;;20.80;56.01;101531.25;7259344;19;152376;-54
2022/11/10 04:45:03;;;;;;;;;;;;;;;20.78;56.15;101533.53;7260820;19;152825;-54
2022/11/10 04:47:43;;;;;;;;;;;;;;;20.79;56.13;101529.59;7263541;19;152776;-54
2022/11/10 04:50:30;;;;;;;;;;;;;;;20.77;56.10;101526.22;7257871;19;152575;-54
2022/11/10 04:53:11;;;;;;;;;;;;;;;20.74;56.44;101526.00;7261286;19;152606;-54
2022/11/10 04:55:52;;;;;;;;;;;;;;;20.74;56.14;101523.19;7265737;19;153174;-54
2022/11/10 04:58:33;;;;;;;;;;;;;;;20.72;56.45;101529.09;7258871;19;151999;-54
2022/11/10 05:01:22;;;;;;;;;;;;;;;20.70;56.19;101524.91;7257979;19;152919;-54
2022/11/10 05:04:04;;;;;;;;;;;;;;;20.70;56.42;101527.72;7260564;19;152831;-55
2022/11/10 05:06:45;;;;;;;;;;;;;;;20.69;56.64;101524.06;7259159;19;152486;-55
2022/11/10 05:09:26;;;;;;;;;;;;;;;20.69;56.39;101521.25;7260747;19;152953;-55
2022/11/10 05:12:07;;;;;;;;;;;;;;;20.67;56.36;101520.69;7260902;19;153201;-54
2022/11/10 05:14:48;;;;;;;;;;;;;;;20.66;56.42;101521.84;7257986;19;153624;-54
2022/11/10 05:17:28;;;;;;;;;;;;;;;20.65;56.61;101520.19;7262969;19;152510;-54
2022/11/10 05:20:09;;;;;;;;;;;;;;;20.65;56.75;101525.78;7266165;19;152889;-54
2022/11/10 05:25:43;;;;;;;;;;;;;;;20.64;56.61;101534.50;7261349;19;153159;-55
2022/11/10 05:28:24;;;;;;;;;;;;;;;20.63;56.62;101542.09;7262530;19;151998;-54
2022/11/10 05:31:05;;;;;;;;;;;;;;;20.62;56.72;101539.59;7258766;19;154555;-55
2022/11/10 05:33:46;;;;;;;;;;;;;;;20.60;56.40;101542.69;7259856;19;153623;-55
2022/11/10 05:36:27;;;;;;;;;;;;;;;20.59;56.70;101545.78;7261379;19;151907;-54
2022/11/10 05:39:09;;;;;;;;;;;;;;;20.58;56.79;101547.75;7258962;19;152641;-54
2022/11/10 05:41:50;;;;;;;;;;;;;;;20.51;57.70;101550.06;7266309;19;152117;-54
2022/11/10 05:44:30;;;;;;;;;;;;;;;20.50;58.29;101548.38;7257363;19;151978;-54
2022/11/10 05:47:11;;;;;;;;;;;;;;;20.50;58.72;101558.78;7257590;19;153362;-54
2022/11/10 05:49:52;;;;;;;;;;;;;;;20.50;59.10;101565.22;7263482;19;152814;-55
2022/11/10 05:52:34;;;;;;;;;;;;;;;20.52;59.29;101570.56;7259507;19;152351;-55
2022/11/10 05:55:16;;;;;;;;;;;;;;;20.55;59.30;101573.59;7260970;19;152356;-55
2022/11/10 05:57:58;;;;;;;;;;;;;;;20.59;59.11;101571.03;7262910;19;152304;-54
2022/11/10 06:00:39;;;;;;;;;;;;;;;20.65;59.53;101572.69;7260923;19;152275;-54
2022/11/10 06:03:20;;;;;;;;;;;;;;;20.69;59.66;101568.16;7259965;19;152369;-54
2022/11/10 06:06:01;;;;;;;;;;;;;;;20.74;60.22;101570.91;7270628;19;152896;-54
2022/11/10 06:08:43;;;;;;;;;;;;;;;20.77;60.10;101571.16;7264991;19;152865;-54
2022/11/10 06:11:28;;;;;;;;;;;;;;;20.81;59.86;101577.88;7261425;19;152551;-54
2022/11/10 06:14:09;;;;;;;;;;;;;;;20.86;59.69;101568.56;7261556;19;152343;-54
2022/11/10 06:16:51;;;;;;;;;;;;;;;20.91;59.74;101573.28;7261044;19;152030;-54
2022/11/10 06:19:33;;;;;;;;;;;;;;;20.95;59.47;101572.38;7261717;19;152329;-54
2022/11/10 06:22:17;;;;;;;;;;;;;;;21.00;59.66;101571.50;7256837;19;153523;-55
2022/11/10 06:24:58;;;;;;;;;;;;;;;21.05;59.47;101568.66;7257935;19;153075;-54
2022/11/10 06:27:42;;;;;;;;;;;;;;;21.10;59.71;101577.03;7255342;19;152306;-55
2022/11/10 06:30:30;;;;;;;;;;;;;;;21.16;59.83;101567.44;7264596;19;151756;-54
2022/11/10 06:33:14;;;;;;;;;;;;;;;21.19;59.40;101562.06;7259276;19;152096;-54
2022/11/10 06:36:01;;;;;;;;;;;;;;;21.24;59.56;101559.19;7256764;19;153167;-54
2022/11/10 06:38:45;;;;;;;;;;;;;;;21.30;59.39;101568.41;7258324;19;152404;-55
2022/11/10 06:41:50;;;;;;;;;;;;;;;21.35;59.53;101562.72;7256808;19;152392;-55
2022/11/10 06:44:32;;;;;;;;;;;;;;;21.41;59.39;101575.59;7257081;19;152731;-55
2022/11/10 06:47:14;;;;;;;;;;;;;;;21.46;59.03;101577.50;7256144;19;152650;-55
2022/11/10 06:49:55;;;;;;;;;;;;;;;21.49;59.11;101577.72;7260705;19;153087;-55
2022/11/10 06:52:52;;;;;;;;;;;;;;;21.54;58.96;101585.25;7259053;19;153492;-55
2022/11/10 06:55:40;;;;;;;;;;;;;;;21.57;58.88;101581.88;7265840;19;152435;-55
2022/11/10 06:58:27;;;;;;;;;;;;;;;21.60;58.44;101584.91;7260916;19;151997;-55
2022/11/10 07:01:20;;;;;;;;;;;;;;;21.64;58.50;101588.78;7259610;19;153469;-55
2022/11/10 07:04:02;;;;;;;;;;;;;;;21.67;57.93;101593.81;7261764;19;151905;-55
2022/11/10 07:06:47;;;;;;;;;;;;;;;21.68;58.23;101603.94;7261440;19;152805;-55
2022/11/10 07:09:28;;;;;;;;;;;;;;;21.71;58.18;101617.38;7258322;19;152489;-55
2022/11/10 07:12:12;;;;;;;;;;;;;;;21.74;58.01;101615.97;7259197;19;153738;-55
2022/11/10 07:15:15;;;;;;;;;;;;;;;21.76;57.56;101618.47;7258541;19;154478;-55
2022/11/10 07:17:56;;;;;;;;;;;;;;;21.78;58.06;101613.38;7258860;19;152966;-56
2022/11/10 07:20:39;;;;;;;;;;;;;;;21.81;57.69;101632.44;7267457;19;153180;-55
2022/11/10 07:23:27;;;;;;;;;;;;;;;21.82;57.63;101628.50;7255210;19;152418;-55
2022/11/10 07:26:34;;;;;;;;;;;;;;;21.82;57.11;101636.94;7266425;19;152194;-55
2022/11/10 07:29:17;;;;;;;;;;;;;;;21.76;55.71;101627.72;7266723;19;152585;-55
2022/11/10 07:32:02;;;;;;;;;;;;;;;21.70;55.49;101623.31;7270457;19;152080;-55
2022/11/10 07:34:46;;;;;;;;;;;;;;;21.69;55.45;101627.28;7265149;19;153257;-55
2022/11/10 07:37:46;;;;;;;;;;;;;;;21.71;55.33;101628.63;7267730;19;152539;-55
2022/11/10 07:40:28;;;;;;;;;;;;;;;21.66;54.46;101622.25;7267181;19;153375;-55
2022/11/10 07:43:17;;;;;;;;;;;;;;;21.63;54.19;101620.03;7268577;19;152238;-55
2022/11/10 07:46:00;;;;;;;;;;;;;;;21.60;54.05;101627.09;7263556;19;152198;-55
2022/11/10 07:48:26;;;;;;;;;;;;;;;21.58;54.02;101637.78;7269037;19;152162;-55
2022/11/10 07:50:53;;;;;;;;;;;;;;;21.56;54.03;101628.84;7268446;19;153877;-55
2022/11/10 07:53:20;;;;;;;;;;;;;;;21.56;53.70;101633.63;7268644;19;154486;-55
2022/11/10 07:55:47;;;;;;;;;;;;;;;21.54;53.81;101630.25;7269236;19;152676;-55
2022/11/10 07:58:15;;;;;;;;;;;;;;;21.52;53.43;101639.00;7268595;19;153039;-55
2022/11/10 08:00:42;;;;;;;;;;;;;;;21.51;53.65;101630.84;7266738;19;154652;-55
2022/11/10 08:03:13;;;;;;;;;;;;;;;21.51;53.12;101633.66;7272732;19;152139;-55
2022/11/10 08:05:40;;;;;;;;;;;;;;;21.49;53.46;101648.00;7276431;19;154008;-55
2022/11/10 08:08:07;;;;;;;;;;;;;;;21.47;53.68;101644.69;7268765;19;153178;-55
2022/11/10 08:10:34;;;;;;;;;;;;;;;21.46;53.44;101643.00;7267895;19;154175;-55
2022/11/10 08:13:03;;;;;;;;;;;;;;;21.39;52.51;101662.22;7267701;19;154218;-53
2022/11/10 08:15:30;;;;;;;;;;;;;;;21.24;50.02;101656.72;7269714;19;153916;-54
2022/11/10 08:17:58;;;;;;;;;;;;;;;21.24;51.69;101657.56;7269702;19;153666;-54
2022/11/10 08:20:25;;;;;;;;;;;;;;;21.25;51.59;101655.59;7266963;19;154433;-54
2022/11/10 08:22:59;;;;;;;;;;;;;;;21.24;51.94;101651.94;7265791;19;153311;-54
2022/11/10 08:25:26;;;;;;;;;;;;;;;21.29;52.64;101654.72;7262410;19;153456;-54
2022/11/10 08:28:10;;;;;;;;;;;;;;;21.24;52.17;101651.94;7270221;19;154277;-54
2022/11/10 08:30:38;;;;;;;;;;;;;;;21.22;52.70;101657.00;7265373;19;154474;-54
2022/11/10 08:33:06;;;;;;;;;;;;;;;21.20;52.70;101659.31;7264905;19;154147;-54
2022/11/10 08:35:34;;;;;;;;;;;;;;;21.21;52.83;101658.13;7267446;19;153446;-54
2022/11/10 08:38:08;;;;;;;;;;;;;;;21.19;52.65;101657.63;7260739;19;152909;-54
2022/11/10 08:40:35;;;;;;;;;;;;;;;21.19;52.86;101656.78;7258281;19;154423;-54
2022/11/10 08:43:03;;;;;;;;;;;;;;;21.17;52.59;101664.66;7257660;19;153536;-54
2022/11/10 08:45:29;;;;;;;;;;;;;;;21.19;52.84;101659.59;7255882;19;154074;-54
2022/11/10 08:48:00;;;;;;;;;;;;;;;21.16;52.65;101668.63;7257757;19;153239;-54
2022/11/10 08:50:28;;;;;;;;;;;;;;;21.15;52.46;101669.75;7260816;19;153211;-54
2022/11/10 08:52:54;;;;;;;;;;;;;;;21.14;52.58;101677.34;7257687;19;155639;-54
2022/11/10 08:55:21;;;;;;;;;;;;;;;21.13;52.99;101688.84;7258519;19;152418;-54
2022/11/10 08:57:48;;;;;;;;;;;;;;;21.14;52.92;101684.91;7254264;19;154632;-54
2022/11/10 09:00:15;;;;;;;;;;;;;;;21.11;52.91;101689.13;7256688;19;153961;-55
2022/11/10 09:02:42;;;;;;;;;;;;;;;21.11;52.72;101691.94;7258710;19;153606;-54
2022/11/10 09:05:08;;;;;;;;;;;;;;;21.09;52.95;101691.38;7258046;19;153605;-54
2022/11/10 09:07:42;;;;;;;;;;;;;;;21.08;53.16;101703.75;7256237;19;153634;-54
2022/11/10 09:10:09;;;;;;;;;;;;;;;21.06;52.72;101708.00;7256129;19;154443;-54
2022/11/10 09:12:36;;;;;;;;;;;;;;;21.07;52.80;101720.94;7262035;19;153666;-54
2022/11/10 09:15:03;;;;;;;;;;;;;;;21.04;52.68;101725.16;7255471;19;153489;-54
2022/11/10 09:17:30;;;;;;;;;;;;;;;21.04;52.86;101727.13;7256719;19;153138;-54
2022/11/10 09:19:57;;;;;;;;;;;;;;;21.01;52.64;101736.97;7256507;19;154029;-54
2022/11/10 09:22:23;;;;;;;;;;;;;;;21.01;52.85;101741.75;7257671;19;154243;-54
2022/11/10 09:24:50;;;;;;;;;;;;;;;21.00;53.00;101740.06;7252002;19;153726;-54
2022/11/10 09:27:17;;;;;;;;;;;;;;;20.98;52.71;101737.56;7254290;19;154410;-54
2022/11/10 09:29:44;;;;;;;;;;;;;;;20.98;52.73;101742.34;7255079;19;153212;-54
2022/11/10 09:32:10;;;;;;;;;;;;;;;21.00;53.08;101748.50;7254974;19;152826;-54
2022/11/10 09:34:37;;;;;;;;;;;;;;;20.97;52.88;101749.94;7263054;19;153985;-54
2022/11/10 09:37:03;;;;;;;;;;;;;;;20.97;52.93;101755.56;7256304;19;153696;-54
2022/11/10 09:39:41;;;;;;;;;;;;;;;20.95;53.15;101755.00;7258561;19;154203;-54
2022/11/10 09:42:30;;;;;;;;;;;;;;;20.99;53.06;101760.88;7259565;19;152669;-54
2022/11/10 09:45:00;;;;;;;;;;;;;;;20.98;53.19;101767.63;7257871;19;154215;-54
2022/11/10 09:47:40;;;;;;;;;;;;;;;20.96;53.21;101765.09;7251082;19;153325;-54
2022/11/10 09:50:36;;;;;;;;;;;;;;;20.92;52.90;101775.25;7256218;19;153693;-54
2022/11/10 09:53:04;;;;;;;;;;;;;;;20.94;52.71;101777.78;7258207;19;153148;-54
2022/11/10 09:55:34;;;;;;;;;;;;;;;20.91;52.77;101773.56;7261762;19;153475;-54
2022/11/10 09:58:01;;;;;;;;;;;;;;;20.90;52.95;101785.09;7256948;19;153241;-54
2022/11/10 10:00:30;;;;;;;;;;;;;;;20.88;52.30;101776.97;7254351;19;154382;-54
2022/11/10 10:03:03;;;;;;;;;;;;;;;20.89;52.36;101789.06;7255932;19;151962;-54
2022/11/10 10:05:50;;;;;;;;;;;;;;;20.84;52.19;101796.38;7255811;19;153592;-54
2022/11/10 10:08:22;;;;;;;;;;;;;;;20.86;52.68;101794.09;7256210;19;154127;-55
2022/11/10 10:10:56;;;;;;;;;;;;;;;20.85;52.27;101794.38;7255370;19;152404;-54
2022/11/10 10:13:41;;;;;;;;;;;;;;;20.83;52.20;101791.88;7256329;19;153461;-54
2022/11/10 10:16:15;;;;;;;;;;;;;;;20.83;52.44;101794.69;7254904;19;153386;-54
2022/11/10 10:18:41;;;;;;;;;;;;;;;20.80;52.40;101805.69;7262092;19;153240;-54
2022/11/10 10:21:27;;;;;;;;;;;;;;;20.78;52.82;101805.13;7252183;19;154183;-54
2022/11/10 10:23:54;;;;;;;;;;;;;;;20.77;52.58;101811.84;7254961;19;153491;-54
2022/11/10 10:26:40;;;;;;;;;;;;;;;20.75;52.93;101809.34;7249813;19;153830;-54
2022/11/10 10:29:09;;;;;;;;;;;;;;;20.75;52.93;101819.75;7255089;19;154932;-54
2022/11/10 10:31:41;;;;;;;;;;;;;;;20.73;52.62;101822.81;7253534;19;153366;-54
2022/11/10 10:34:11;;;;;;;;;;;;;;;20.71;53.09;101825.09;7258594;19;153844;-54
2022/11/10 10:36:38;;;;;;;;;;;;;;;20.72;53.28;101828.72;7253920;19;154345;-54
2022/11/10 10:39:06;;;;;;;;;;;;;;;20.70;53.05;101822.56;7256870;19;154156;-54
2022/11/10 10:41:35;;;;;;;;;;;;;;;20.69;52.95;101826.50;7260807;19;154491;-54
2022/11/10 10:44:09;;;;;;;;;;;;;;;20.68;53.47;101824.81;7253145;19;153257;-54
2022/11/10 10:46:44;;;;;;;;;;;;;;;20.67;53.07;101809.13;7254187;19;153768;-54
2022/11/10 10:49:15;;;;;;;;;;;;;;;20.66;53.25;101819.50;7252586;19;154200;-54
2022/11/10 10:52:10;;;;;;;;;;;;;;;20.65;53.36;101825.41;7253593;19;153504;-54
2022/11/10 10:54:38;;;;;;;;;;;;;;;20.64;53.42;101826.53;7255500;19;153517;-54
2022/11/10 10:57:13;;;;;;;;;;;;;;;20.64;53.50;101829.34;7252556;19;154305;-54
2022/11/10 10:59:40;;;;;;;;;;;;;;;20.63;53.66;101824.84;7249783;19;153058;-54
2022/11/10 11:02:36;;;;;;;;;;;;;;;20.61;53.25;101825.16;7253421;19;153864;-54
2022/11/10 11:05:16;;;;;;;;;;;;;;;20.60;53.68;101834.69;7258215;19;155421;-54
2022/11/10 11:07:56;;;;;;;;;;;;;;;20.58;53.66;101831.31;7252731;19;153433;-54
2022/11/10 11:10:33;;;;;;;;;;;;;;;20.58;53.80;101833.31;7252095;19;153538;-54
2022/11/10 11:13:18;;;;;;;;;;;;;;;20.57;53.60;101828.81;7252614;19;152335;-54
2022/11/10 11:16:06;;;;;;;;;;;;;;;20.54;53.83;101818.97;7252289;19;152993;-54
2022/11/10 11:18:34;;;;;;;;;;;;;;;20.53;53.56;101825.75;7251774;19;153690;-54
2022/11/10 11:21:13;;;;;;;;;;;;;;;20.51;53.92;101822.38;7254413;19;152010;-54
2022/11/10 11:23:49;;;;;;;;;;;;;;;20.52;53.71;101820.41;7252814;19;154163;-54
2022/11/10 11:26:18;;;;;;;;;;;;;;;20.49;53.74;101813.38;7248563;19;156745;-54
2022/11/10 11:29:03;;;;;;;;;;;;;;;20.50;54.09;101812.25;7258378;19;153908;-54
2022/11/10 11:31:48;;;;;;;;;;;;;;;20.50;53.56;101803.00;7247430;19;153667;-54
2022/11/10 11:34:27;;;;;;;;;;;;;;;20.48;53.96;101808.94;7253258;19;152340;-54
2022/11/10 11:37:06;;;;;;;;;;;;;;;20.47;54.06;101818.47;7252262;19;152967;-55
2022/11/10 11:39:39;;;;;;;;;;;;;;;20.46;53.59;101811.16;7251026;19;154561;-54
2022/11/10 11:42:24;;;;;;;;;;;;;;;20.42;54.11;101819.31;7255153;19;153315;-54
2022/11/10 11:45:03;;;;;;;;;;;;;;;20.41;53.83;101819.59;7250361;19;153906;-54
2022/11/10 11:47:30;;;;;;;;;;;;;;;20.41;54.22;101819.59;7251483;19;153546;-54
2022/11/10 11:50:05;;;;;;;;;;;;;;;20.39;54.08;101805.03;7253622;19;153660;-54
2022/11/10 11:52:35;;;;;;;;;;;;;;;20.39;54.12;101810.66;7256189;19;153294;-54
2022/11/10 11:55:11;;;;;;;;;;;;;;;20.40;54.13;101815.94;7254457;19;152214;-55
2022/11/10 11:57:49;;;;;;;;;;;;;;;20.39;53.87;101813.44;7244246;19;153332;-54
2022/11/10 12:00:17;;;;;;;;;;;;;;;20.39;54.14;101821.88;7250814;19;154640;-54
2022/11/10 12:02:53;;;;;;;;;;;;;;;20.38;54.10;101823.84;7251315;19;152297;-54
2022/11/10 12:05:28;;;;;;;;;;;;;;;20.39;53.97;101822.72;7253039;19;153492;-54
2022/11/10 12:08:04;;;;;;;;;;;;;;;20.40;54.60;101809.50;7251714;19;153992;-54
2022/11/10 12:10:42;;;;;;;;;;;;;;;20.42;54.15;101810.06;7254546;19;152601;-54
2022/11/10 12:13:18;;;;;;;;;;;;;;;20.47;54.15;101809.19;7262513;19;155532;-55
2022/11/10 12:15:44;;;;;;;;;;;;;;;20.51;54.26;101801.88;7254369;19;152775;-55
2022/11/10 12:18:14;;;;;;;;;;;;;;;20.53;54.39;101803.28;7258767;19;153151;-55
2022/11/10 12:20:59;;;;;;;;;;;;;;;20.58;54.14;101794.00;7251511;19;153716;-55
2022/11/10 12:23:44;;;;;;;;;;;;;;;20.63;54.33;101802.38;7255658;19;152347;-55
2022/11/10 12:26:23;;;;;;;;;;;;;;;20.65;53.95;101812.22;7257382;19;153606;-55
2022/11/10 12:29:10;;;;;;;;;;;;;;;20.69;53.88;101815.28;7249946;19;154459;-55
2022/11/10 12:31:45;;;;;;;;;;;;;;;20.73;54.06;101816.38;7256846;19;153733;-55
2022/11/10 12:34:25;;;;;;;;;;;;;;;20.76;53.71;101813.81;7261266;19;154779;-55
2022/11/10 12:36:52;;;;;;;;;;;;;;;20.79;54.05;101837.69;7265015;19;153906;-55
2022/11/10 12:39:36;;;;;;;;;;;;;;;20.82;53.86;101842.72;7257654;19;153037;-55
2022/11/10 12:42:04;;;;;;;;;;;;;;;20.83;53.47;101825.59;7257750;19;154203;-55
2022/11/10 12:44:33;;;;;;;;;;;;;;;20.86;53.91;101826.97;7256833;19;154556;-55
2022/11/10 12:47:04;;;;;;;;;;;;;;;20.89;53.47;101840.47;7256250;19;154110;-55
2022/11/10 12:49:37;;;;;;;;;;;;;;;20.89;53.35;101831.19;7257106;19;153886;-55
2022/11/10 12:52:03;;;;;;;;;;;;;;;20.91;53.17;101829.75;7257349;19;154374;-55
2022/11/10 12:54:30;;;;;;;;;;;;;;;20.92;53.61;101831.44;7257438;19;156265;-55
2022/11/10 12:57:00;;;;;;;;;;;;;;;20.94;53.41;101839.59;7256905;19;154780;-55
2022/11/10 12:59:37;;;;;;;;;;;;;;;20.96;53.33;101837.31;7262056;19;153070;-55
2022/11/10 13:02:28;;;;;;;;;;;;;;;20.98;53.00;101837.88;7250181;19;153672;-55
2022/11/10 13:05:13;;;;;;;;;;;;;;;21.00;53.16;101835.59;7258966;19;154424;-55
2022/11/10 13:07:47;;;;;;;;;;;;;;;21.03;53.42;101835.84;7257929;19;153584;-55
2022/11/10 13:10:24;;;;;;;;;;;;;;;21.02;53.36;101836.16;7256671;19;154033;-55
2022/11/10 13:13:00;;;;;;;;;;;;;;;21.01;52.97;101834.47;7256053;19;151743;-55
2022/11/10 13:15:36;;;;;;;;;;;;;;;21.01;52.74;101834.47;7255444;19;154020;-55
2022/11/10 13:18:03;;;;;;;;;;;;;;;21.02;53.02;101850.22;7256374;19;153452;-55
2022/11/10 13:20:48;;;;;;;;;;;;;;;21.02;52.97;101848.25;7252338;19;152994;-55
2022/11/10 13:23:21;;;;;;;;;;;;;;;21.03;52.55;101854.72;7257985;19;154441;-55
2022/11/10 13:25:51;;;;;;;;;;;;;;;21.02;52.36;101855.84;7257603;19;152276;-55
2022/11/10 13:28:36;;;;;;;;;;;;;;;21.02;52.34;101853.03;7251023;19;154602;-55
2022/11/10 13:31:24;;;;;;;;;;;;;;;21.03;52.41;101860.31;7251152;19;152493;-55
2022/11/10 13:34:09;;;;;;;;;;;;;;;21.00;52.53;101850.50;7259447;19;154528;-54
2022/11/10 13:36:37;;;;;;;;;;;;;;;21.01;52.32;101852.19;7254976;19;152894;-54
2022/11/10 13:39:33;;;;;;;;;;;;;;;21.01;52.09;101857.78;7256402;19;153941;-55
2022/11/10 13:42:15;;;;;;;;;;;;;;;21.01;52.11;101857.78;7258043;19;153067;-55
2022/11/10 13:44:43;;;;;;;;;;;;;;;21.00;52.20;101855.25;7253627;19;155094;-54